Weather at Rome–Fiumicino Leonardo da Vinci International Airport

Public forecast

Using degrees Celsius for public forecast. Weather courtesy of forecast.io.

Current aviation weather report (METAR) for Rome–Fiumicino Leonardo da Vinci International Airport

Retrieved 2022/05/19 08:20 UTC (25 minutes ago):

LIRF 190820Z 32005KT 270V360 CAVOK 24/10 Q1024 NOSIG

Aviation forecast (TAF) for Rome–Fiumicino Leonardo da Vinci International Airport

Retrieved 2022/05/19 06:00 UTC (3 hours ago):

TAF LIRF 190500Z 1906/2012 04006KT CAVOK BECMG 1908/1910 28012KT BECMG 1918/1920 VRB04KT BECMG 2010/2012 25011KT